Terminal Aerodrome Forecast
Issued by NWS Charleston, WV

Current Version | Previous Version | Text Only | Print | Product List | Glossary Off
Versions: 1 2 3 4 5 6 7 8 9 10 11 12 13 14 15 16 17 18 19 20 21 22 23

028
FTUS41 KRLX 211457 AAA
TAFEKN
TAF AMD
KEKN 211457Z 2115/2212 17010G20KT P6SM BKN060
     FM211800 16008G15KT 5SM SHRA OVC025
     FM212300 16006KT 3SM SHRA OVC015=

USA.gov is the U.S. government's official web portal to all federal, state and local government web resources and services.